sensor_id;sensor_type;location;lat;lon;timestamp;temperature;humidity
11204;DHT22;5659;49.408;11.116;2022-12-18T00:01:46;-12.20;99.90
11204;DHT22;5659;49.408;11.116;2022-12-18T00:04:21;-11.90;99.90
11204;DHT22;5659;49.408;11.116;2022-12-18T00:06:47;-12.30;99.90
11204;DHT22;5659;49.408;11.116;2022-12-18T00:09:12;-12.30;99.90
11204;DHT22;5659;49.408;11.116;2022-12-18T00:11:38;-12.40;99.90
11204;DHT22;5659;49.408;11.116;2022-12-18T00:14:03;-12.40;99.90
11204;DHT22;5659;49.408;11.116;2022-12-18T00:16:29;-12.50;99.90
11204;DHT22;5659;49.408;11.116;2022-12-18T00:18:58;-12.50;99.90
11204;DHT22;5659;49.408;11.116;2022-12-18T00:21:25;-12.50;99.90
11204;DHT22;5659;49.408;11.116;2022-12-18T00:23:51;-12.50;99.90
11204;DHT22;5659;49.408;11.116;2022-12-18T00:26:20;-12.60;99.90
11204;DHT22;5659;49.408;11.116;2022-12-18T00:28:47;-12.70;99.90
11204;DHT22;5659;49.408;11.116;2022-12-18T00:31:16;-12.60;99.90
11204;DHT22;5659;49.408;11.116;2022-12-18T00:33:42;-12.70;99.90
11204;DHT22;5659;49.408;11.116;2022-12-18T00:36:12;-12.80;99.90
11204;DHT22;5659;49.408;11.116;2022-12-18T00:38:38;-12.80;99.90
11204;DHT22;5659;49.408;11.116;2022-12-18T00:41:04;-12.90;99.90
11204;DHT22;5659;49.408;11.116;2022-12-18T00:43:30;-12.90;99.90
11204;DHT22;5659;49.408;11.116;2022-12-18T00:45:56;-12.80;99.90
11204;DHT22;5659;49.408;11.116;2022-12-18T00:48:21;-13.00;99.90
11204;DHT22;5659;49.408;11.116;2022-12-18T00:50:50;-13.00;99.90
11204;DHT22;5659;49.408;11.116;2022-12-18T00:53:16;-13.00;99.90
11204;DHT22;5659;49.408;11.116;2022-12-18T00:55:42;-13.00;99.90
11204;DHT22;5659;49.408;11.116;2022-12-18T00:58:10;-12.90;99.90
11204;DHT22;5659;49.408;11.116;2022-12-18T01:00:35;-12.90;99.90
11204;DHT22;5659;49.408;11.116;2022-12-18T01:03:01;-13.00;99.90
11204;DHT22;5659;49.408;11.116;2022-12-18T01:05:27;-13.00;99.90
11204;DHT22;5659;49.408;11.116;2022-12-18T01:07:53;-13.00;99.90
11204;DHT22;5659;49.408;11.116;2022-12-18T01:10:18;-13.10;99.90
11204;DHT22;5659;49.408;11.116;2022-12-18T01:12:44;-13.10;99.90
11204;DHT22;5659;49.408;11.116;2022-12-18T01:15:12;-13.10;99.90
11204;DHT22;5659;49.408;11.116;2022-12-18T01:17:38;-13.10;99.90
11204;DHT22;5659;49.408;11.116;2022-12-18T01:20:04;-13.20;99.90
11204;DHT22;5659;49.408;11.116;2022-12-18T01:22:30;-12.90;99.90
11204;DHT22;5659;49.408;11.116;2022-12-18T01:24:56;-13.20;99.90
11204;DHT22;5659;49.408;11.116;2022-12-18T01:27:21;-13.20;99.90
11204;DHT22;5659;49.408;11.116;2022-12-18T01:29:47;-13.10;99.90
11204;DHT22;5659;49.408;11.116;2022-12-18T01:32:12;-13.20;99.90
11204;DHT22;5659;49.408;11.116;2022-12-18T01:34:38;-13.30;99.90
11204;DHT22;5659;49.408;11.116;2022-12-18T01:37:04;-13.20;99.90
11204;DHT22;5659;49.408;11.116;2022-12-18T01:39:30;-13.20;99.90
11204;DHT22;5659;49.408;11.116;2022-12-18T01:41:58;-13.20;99.90
11204;DHT22;5659;49.408;11.116;2022-12-18T01:50:21;-13.40;99.90
11204;DHT22;5659;49.408;11.116;2022-12-18T01:52:50;-13.40;99.90
11204;DHT22;5659;49.408;11.116;2022-12-18T01:55:19;-13.40;99.90
11204;DHT22;5659;49.408;11.116;2022-12-18T01:57:47;-13.40;99.90
11204;DHT22;5659;49.408;11.116;2022-12-18T02:00:16;-13.40;99.90
11204;DHT22;5659;49.408;11.116;2022-12-18T02:02:45;-13.30;99.90
11204;DHT22;5659;49.408;11.116;2022-12-18T02:05:12;-13.40;99.90
11204;DHT22;5659;49.408;11.116;2022-12-18T02:10:39;-13.20;99.90
11204;DHT22;5659;49.408;11.116;2022-12-18T02:16:16;-13.00;99.90
11204;DHT22;5659;49.408;11.116;2022-12-18T02:18:48;-12.90;99.90
11204;DHT22;5659;49.408;11.116;2022-12-18T02:21:44;-13.30;99.90
11204;DHT22;5659;49.408;11.116;2022-12-18T02:24:33;-12.70;99.90
11204;DHT22;5659;49.408;11.116;2022-12-18T02:27:04;-12.50;99.90
11204;DHT22;5659;49.408;11.116;2022-12-18T02:29:46;-12.40;99.90
11204;DHT22;5659;49.408;11.116;2022-12-18T02:32:18;-12.00;99.90
11204;DHT22;5659;49.408;11.116;2022-12-18T02:34:46;-11.80;99.90
11204;DHT22;5659;49.408;11.116;2022-12-18T02:37:16;-11.40;99.90
11204;DHT22;5659;49.408;11.116;2022-12-18T02:39:43;-11.10;99.90
11204;DHT22;5659;49.408;11.116;2022-12-18T02:42:10;-10.50;99.90
11204;DHT22;5659;49.408;11.116;2022-12-18T02:44:48;-10.00;99.90
11204;DHT22;5659;49.408;11.116;2022-12-18T02:47:17;-9.70;99.90
11204;DHT22;5659;49.408;11.116;2022-12-18T02:49:58;-9.60;99.90
11204;DHT22;5659;49.408;11.116;2022-12-18T02:52:55;-9.50;99.90
11204;DHT22;5659;49.408;11.116;2022-12-18T02:58:04;-9.30;99.90
11204;DHT22;5659;49.408;11.116;2022-12-18T03:01:00;-9.20;99.90
11204;DHT22;5659;49.408;11.116;2022-12-18T03:03:29;-9.10;99.90
11204;DHT22;5659;49.408;11.116;2022-12-18T03:06:02;-8.90;99.90
11204;DHT22;5659;49.408;11.116;2022-12-18T03:08:31;-9.00;99.90
11204;DHT22;5659;49.408;11.116;2022-12-18T03:11:06;-8.90;99.90
11204;DHT22;5659;49.408;11.116;2022-12-18T03:13:46;-8.80;99.90
11204;DHT22;5659;49.408;11.116;2022-12-18T03:16:19;-8.70;99.90
11204;DHT22;5659;49.408;11.116;2022-12-18T03:18:58;-8.70;99.90
11204;DHT22;5659;49.408;11.116;2022-12-18T03:21:29;-8.60;99.90
11204;DHT22;5659;49.408;11.116;2022-12-18T03:23:58;-8.50;99.90
11204;DHT22;5659;49.408;11.116;2022-12-18T03:26:26;-8.40;99.90
11204;DHT22;5659;49.408;11.116;2022-12-18T03:29:03;-8.40;99.90
11204;DHT22;5659;49.408;11.116;2022-12-18T03:31:36;-8.30;99.90
11204;DHT22;5659;49.408;11.116;2022-12-18T03:34:05;-8.20;99.90
11204;DHT22;5659;49.408;11.116;2022-12-18T03:36:34;-8.40;99.90
11204;DHT22;5659;49.408;11.116;2022-12-18T03:39:00;-8.20;99.90
11204;DHT22;5659;49.408;11.116;2022-12-18T03:41:37;-8.20;99.90
11204;DHT22;5659;49.408;11.116;2022-12-18T03:44:29;-8.00;99.90
11204;DHT22;5659;49.408;11.116;2022-12-18T03:47:05;-8.20;99.90
11204;DHT22;5659;49.408;11.116;2022-12-18T03:49:58;-8.20;99.90
11204;DHT22;5659;49.408;11.116;2022-12-18T03:52:36;-8.10;99.90
11204;DHT22;5659;49.408;11.116;2022-12-18T03:55:05;-8.00;99.90
11204;DHT22;5659;49.408;11.116;2022-12-18T03:57:32;-8.10;99.90
11204;DHT22;5659;49.408;11.116;2022-12-18T04:00:14;-8.00;99.90
11204;DHT22;5659;49.408;11.116;2022-12-18T04:02:47;-8.10;99.90
11204;DHT22;5659;49.408;11.116;2022-12-18T04:05:14;-8.10;99.90
11204;DHT22;5659;49.408;11.116;2022-12-18T04:07:41;-8.00;99.90
11204;DHT22;5659;49.408;11.116;2022-12-18T04:10:08;-7.80;99.90
11204;DHT22;5659;49.408;11.116;2022-12-18T04:12:34;-7.90;99.90
11204;DHT22;5659;49.408;11.116;2022-12-18T04:15:02;-7.80;99.90
11204;DHT22;5659;49.408;11.116;2022-12-18T04:17:29;-7.80;99.90
11204;DHT22;5659;49.408;11.116;2022-12-18T04:19:54;-7.80;99.90
11204;DHT22;5659;49.408;11.116;2022-12-18T04:22:20;-7.80;99.90
11204;DHT22;5659;49.408;11.116;2022-12-18T04:24:46;-7.70;99.90
11204;DHT22;5659;49.408;11.116;2022-12-18T04:27:11;-7.80;99.90
11204;DHT22;5659;49.408;11.116;2022-12-18T04:29:37;-7.80;99.90
11204;DHT22;5659;49.408;11.116;2022-12-18T04:32:03;-7.80;99.90
11204;DHT22;5659;49.408;11.116;2022-12-18T04:34:29;-7.70;99.90
11204;DHT22;5659;49.408;11.116;2022-12-18T04:36:54;-7.70;99.90
11204;DHT22;5659;49.408;11.116;2022-12-18T04:39:20;-7.60;99.90
11204;DHT22;5659;49.408;11.116;2022-12-18T04:41:45;-7.70;99.90
11204;DHT22;5659;49.408;11.116;2022-12-18T04:44:11;-7.60;99.90
11204;DHT22;5659;49.408;11.116;2022-12-18T04:46:37;-7.70;99.90
11204;DHT22;5659;49.408;11.116;2022-12-18T04:49:02;-7.60;99.90
11204;DHT22;5659;49.408;11.116;2022-12-18T04:51:28;-7.50;99.90
11204;DHT22;5659;49.408;11.116;2022-12-18T04:53:53;-7.30;99.90
11204;DHT22;5659;49.408;11.116;2022-12-18T04:56:19;-7.50;99.90
11204;DHT22;5659;49.408;11.116;2022-12-18T04:58:45;-7.50;99.90
11204;DHT22;5659;49.408;11.116;2022-12-18T05:01:12;-7.40;99.90
11204;DHT22;5659;49.408;11.116;2022-12-18T05:03:37;-7.40;99.90
11204;DHT22;5659;49.408;11.116;2022-12-18T05:06:04;-7.30;99.90
11204;DHT22;5659;49.408;11.116;2022-12-18T05:08:30;-7.30;99.90
11204;DHT22;5659;49.408;11.116;2022-12-18T05:11:07;-7.40;99.90
11204;DHT22;5659;49.408;11.116;2022-12-18T05:13:33;-7.30;99.90
11204;DHT22;5659;49.408;11.116;2022-12-18T05:15:59;-7.30;99.90
11204;DHT22;5659;49.408;11.116;2022-12-18T05:18:25;-7.30;99.90
11204;DHT22;5659;49.408;11.116;2022-12-18T05:20:52;-7.10;99.90
11204;DHT22;5659;49.408;11.116;2022-12-18T05:23:18;-7.20;99.90
11204;DHT22;5659;49.408;11.116;2022-12-18T05:26:05;-7.30;99.90
11204;DHT22;5659;49.408;11.116;2022-12-18T05:28:32;-7.20;99.90
11204;DHT22;5659;49.408;11.116;2022-12-18T05:30:59;-7.10;99.90
11204;DHT22;5659;49.408;11.116;2022-12-18T05:33:28;-7.10;99.90
11204;DHT22;5659;49.408;11.116;2022-12-18T05:35:56;-7.00;99.90
11204;DHT22;5659;49.408;11.116;2022-12-18T05:38:24;-7.00;99.90
11204;DHT22;5659;49.408;11.116;2022-12-18T05:40:50;-6.80;99.90
11204;DHT22;5659;49.408;11.116;2022-12-18T05:43:17;-7.00;99.90
11204;DHT22;5659;49.408;11.116;2022-12-18T05:45:43;-7.00;99.90
11204;DHT22;5659;49.408;11.116;2022-12-18T05:48:09;-6.90;99.90
11204;DHT22;5659;49.408;11.116;2022-12-18T05:50:39;-6.90;99.90
11204;DHT22;5659;49.408;11.116;2022-12-18T05:53:05;-6.90;99.90
11204;DHT22;5659;49.408;11.116;2022-12-18T05:55:35;-6.70;99.90
11204;DHT22;5659;49.408;11.116;2022-12-18T05:58:01;-6.80;99.90
11204;DHT22;5659;49.408;11.116;2022-12-18T06:00:27;-6.80;99.90
11204;DHT22;5659;49.408;11.116;2022-12-18T06:02:52;-6.60;99.90
11204;DHT22;5659;49.408;11.116;2022-12-18T06:05:18;-6.70;99.90
11204;DHT22;5659;49.408;11.116;2022-12-18T06:07:44;-6.50;99.90
11204;DHT22;5659;49.408;11.116;2022-12-18T06:10:09;-6.60;99.90
11204;DHT22;5659;49.408;11.116;2022-12-18T06:12:35;-6.60;99.90
11204;DHT22;5659;49.408;11.116;2022-12-18T06:15:00;-6.60;99.90
11204;DHT22;5659;49.408;11.116;2022-12-18T06:17:33;-6.50;99.90
11204;DHT22;5659;49.408;11.116;2022-12-18T06:19:59;-6.50;99.90
11204;DHT22;5659;49.408;11.116;2022-12-18T06:22:25;-6.50;99.90
11204;DHT22;5659;49.408;11.116;2022-12-18T06:24:51;-6.40;99.90
11204;DHT22;5659;49.408;11.116;2022-12-18T06:27:16;-6.40;99.90
11204;DHT22;5659;49.408;11.116;2022-12-18T06:29:42;-6.40;99.90
11204;DHT22;5659;49.408;11.116;2022-12-18T06:32:08;-6.30;99.90
11204;DHT22;5659;49.408;11.116;2022-12-18T06:34:34;-6.30;99.90
11204;DHT22;5659;49.408;11.116;2022-12-18T06:36:59;-6.30;99.90
11204;DHT22;5659;49.408;11.116;2022-12-18T06:39:27;-6.20;99.90
11204;DHT22;5659;49.408;11.116;2022-12-18T06:41:53;-6.30;99.90
11204;DHT22;5659;49.408;11.116;2022-12-18T06:44:18;-6.20;99.90
11204;DHT22;5659;49.408;11.116;2022-12-18T06:46:44;-5.20;99.90
11204;DHT22;5659;49.408;11.116;2022-12-18T06:49:09;-5.80;99.90
11204;DHT22;5659;49.408;11.116;2022-12-18T06:51:35;-5.00;99.90
11204;DHT22;5659;49.408;11.116;2022-12-18T06:54:01;-5.90;99.90
11204;DHT22;5659;49.408;11.116;2022-12-18T06:56:27;-5.90;99.90
11204;DHT22;5659;49.408;11.116;2022-12-18T06:58:53;-5.80;99.90
11204;DHT22;5659;49.408;11.116;2022-12-18T07:01:19;-5.70;99.90
11204;DHT22;5659;49.408;11.116;2022-12-18T07:03:45;-5.80;99.90
11204;DHT22;5659;49.408;11.116;2022-12-18T07:06:16;-5.80;99.90
11204;DHT22;5659;49.408;11.116;2022-12-18T07:08:42;-5.70;99.90
11204;DHT22;5659;49.408;11.116;2022-12-18T07:11:07;-5.50;99.90
11204;DHT22;5659;49.408;11.116;2022-12-18T07:13:33;-5.50;99.90
11204;DHT22;5659;49.408;11.116;2022-12-18T07:16:27;-5.40;99.90
11204;DHT22;5659;49.408;11.116;2022-12-18T07:18:54;-5.30;99.90
11204;DHT22;5659;49.408;11.116;2022-12-18T07:21:21;-5.40;99.90
11204;DHT22;5659;49.408;11.116;2022-12-18T07:23:47;-5.30;99.90
11204;DHT22;5659;49.408;11.116;2022-12-18T07:26:14;-5.30;99.90
11204;DHT22;5659;49.408;11.116;2022-12-18T07:28:41;-5.30;99.90
11204;DHT22;5659;49.408;11.116;2022-12-18T07:31:10;-5.30;99.90
11204;DHT22;5659;49.408;11.116;2022-12-18T07:33:36;-5.10;99.90
11204;DHT22;5659;49.408;11.116;2022-12-18T07:36:03;-5.00;99.90
11204;DHT22;5659;49.408;11.116;2022-12-18T07:38:30;-5.00;99.90
11204;DHT22;5659;49.408;11.116;2022-12-18T07:41:03;-5.00;99.90
11204;DHT22;5659;49.408;11.116;2022-12-18T07:43:29;-4.70;99.90
11204;DHT22;5659;49.408;11.116;2022-12-18T07:45:54;-5.00;99.90
11204;DHT22;5659;49.408;11.116;2022-12-18T07:48:20;-5.00;99.90
11204;DHT22;5659;49.408;11.116;2022-12-18T07:50:46;-4.90;99.90
11204;DHT22;5659;49.408;11.116;2022-12-18T07:53:11;-4.90;99.90
11204;DHT22;5659;49.408;11.116;2022-12-18T07:55:37;-4.90;99.90
11204;DHT22;5659;49.408;11.116;2022-12-18T07:58:03;-4.90;99.90
11204;DHT22;5659;49.408;11.116;2022-12-18T08:00:30;-4.80;99.90
11204;DHT22;5659;49.408;11.116;2022-12-18T08:02:57;-4.80;99.90
11204;DHT22;5659;49.408;11.116;2022-12-18T08:05:22;-4.70;99.90
11204;DHT22;5659;49.408;11.116;2022-12-18T08:07:48;-4.70;99.90
11204;DHT22;5659;49.408;11.116;2022-12-18T08:10:15;-4.70;99.90
11204;DHT22;5659;49.408;11.116;2022-12-18T08:12:41;-4.50;99.90
11204;DHT22;5659;49.408;11.116;2022-12-18T08:15:07;-4.60;99.90
11204;DHT22;5659;49.408;11.116;2022-12-18T08:17:33;-4.50;99.90
11204;DHT22;5659;49.408;11.116;2022-12-18T08:19:58;-4.50;99.90
11204;DHT22;5659;49.408;11.116;2022-12-18T08:22:24;-4.60;99.90
11204;DHT22;5659;49.408;11.116;2022-12-18T08:24:49;-4.50;99.90
11204;DHT22;5659;49.408;11.116;2022-12-18T08:27:15;-4.40;99.90
11204;DHT22;5659;49.408;11.116;2022-12-18T08:29:41;-4.40;99.90
11204;DHT22;5659;49.408;11.116;2022-12-18T08:32:06;-4.30;99.90
11204;DHT22;5659;49.408;11.116;2022-12-18T08:34:32;-4.30;99.90
11204;DHT22;5659;49.408;11.116;2022-12-18T08:36:57;-4.30;99.90
11204;DHT22;5659;49.408;11.116;2022-12-18T08:39:23;-4.10;99.90
11204;DHT22;5659;49.408;11.116;2022-12-18T08:41:48;-4.30;99.90
11204;DHT22;5659;49.408;11.116;2022-12-18T08:44:34;-4.20;99.90
11204;DHT22;5659;49.408;11.116;2022-12-18T08:47:02;-4.10;99.90
11204;DHT22;5659;49.408;11.116;2022-12-18T08:49:28;-3.80;99.90
11204;DHT22;5659;49.408;11.116;2022-12-18T08:51:57;-4.10;99.90
11204;DHT22;5659;49.408;11.116;2022-12-18T08:54:23;-4.10;99.90
11204;DHT22;5659;49.408;11.116;2022-12-18T08:56:48;-3.90;99.90
11204;DHT22;5659;49.408;11.116;2022-12-18T08:59:16;-4.00;99.90
11204;DHT22;5659;49.408;11.116;2022-12-18T09:01:41;-2.80;99.90
11204;DHT22;5659;49.408;11.116;2022-12-18T09:04:08;-4.00;99.90
11204;DHT22;5659;49.408;11.116;2022-12-18T09:06:34;-3.90;99.90
11204;DHT22;5659;49.408;11.116;2022-12-18T09:09:00;-3.90;99.90
11204;DHT22;5659;49.408;11.116;2022-12-18T09:11:27;-4.10;99.90
11204;DHT22;5659;49.408;11.116;2022-12-18T09:13:54;-3.60;99.90
11204;DHT22;5659;49.408;11.116;2022-12-18T09:16:20;-3.60;99.90
11204;DHT22;5659;49.408;11.116;2022-12-18T09:18:47;-3.50;99.90
11204;DHT22;5659;49.408;11.116;2022-12-18T09:21:18;-3.30;99.90
11204;DHT22;5659;49.408;11.116;2022-12-18T09:23:52;-3.10;99.90
11204;DHT22;5659;49.408;11.116;2022-12-18T09:26:18;-3.10;99.90
11204;DHT22;5659;49.408;11.116;2022-12-18T09:28:44;-3.20;99.90
11204;DHT22;5659;49.408;11.116;2022-12-18T09:31:12;-3.10;99.90
11204;DHT22;5659;49.408;11.116;2022-12-18T09:33:37;-3.20;99.90
11204;DHT22;5659;49.408;11.116;2022-12-18T09:36:05;-3.40;99.90
11204;DHT22;5659;49.408;11.116;2022-12-18T09:38:32;-3.30;99.90
11204;DHT22;5659;49.408;11.116;2022-12-18T09:41:00;-3.30;99.90
11204;DHT22;5659;49.408;11.116;2022-12-18T09:43:46;-3.30;99.90
11204;DHT22;5659;49.408;11.116;2022-12-18T09:46:23;-3.40;99.90
11204;DHT22;5659;49.408;11.116;2022-12-18T09:48:53;-3.30;99.90
11204;DHT22;5659;49.408;11.116;2022-12-18T09:51:23;-3.30;99.90
11204;DHT22;5659;49.408;11.116;2022-12-18T09:53:54;-3.30;99.90
11204;DHT22;5659;49.408;11.116;2022-12-18T09:56:22;-3.10;99.90
11204;DHT22;5659;49.408;11.116;2022-12-18T09:59:00;-3.10;99.90
11204;DHT22;5659;49.408;11.116;2022-12-18T10:01:27;-3.20;99.90
11204;DHT22;5659;49.408;11.116;2022-12-18T10:03:53;-3.20;99.90
11204;DHT22;5659;49.408;11.116;2022-12-18T10:06:39;-3.30;99.90
11204;DHT22;5659;49.408;11.116;2022-12-18T10:09:24;-3.10;99.90
11204;DHT22;5659;49.408;11.116;2022-12-18T10:12:15;-3.00;99.90
11204;DHT22;5659;49.408;11.116;2022-12-18T10:14:51;-3.00;99.90
11204;DHT22;5659;49.408;11.116;2022-12-18T10:19:55;-2.80;99.90
11204;DHT22;5659;49.408;11.116;2022-12-18T10:25:23;-1.70;99.90
11204;DHT22;5659;49.408;11.116;2022-12-18T10:27:55;-1.30;99.90
11204;DHT22;5659;49.408;11.116;2022-12-18T10:30:23;-1.10;99.90
11204;DHT22;5659;49.408;11.116;2022-12-18T10:32:48;-0.90;99.90
11204;DHT22;5659;49.408;11.116;2022-12-18T10:35:22;-0.60;99.90
11204;DHT22;5659;49.408;11.116;2022-12-18T10:40:26;-0.30;99.90
11204;DHT22;5659;49.408;11.116;2022-12-18T10:43:16;-0.20;99.90
11204;DHT22;5659;49.408;11.116;2022-12-18T10:45:58;-0.10;99.90
11204;DHT22;5659;49.408;11.116;2022-12-18T10:48:24;0.00;99.90
11204;DHT22;5659;49.408;11.116;2022-12-18T10:50:51;0.10;99.90
11204;DHT22;5659;49.408;11.116;2022-12-18T10:53:24;-0.20;99.90
11204;DHT22;5659;49.408;11.116;2022-12-18T10:55:52;0.00;99.90
11204;DHT22;5659;49.408;11.116;2022-12-18T10:58:33;0.20;99.90
11204;DHT22;5659;49.408;11.116;2022-12-18T11:06:13;0.70;99.90
11204;DHT22;5659;49.408;11.116;2022-12-18T11:08:41;0.10;99.90
11204;DHT22;5659;49.408;11.116;2022-12-18T11:11:21;-0.30;99.90
11204;DHT22;5659;49.408;11.116;2022-12-18T11:14:03;-0.80;99.90
11204;DHT22;5659;49.408;11.116;2022-12-18T11:16:33;-0.90;99.90
11204;DHT22;5659;49.408;11.116;2022-12-18T11:21:54;-0.90;99.90
11204;DHT22;5659;49.408;11.116;2022-12-18T11:26:51;-0.60;99.90
11204;DHT22;5659;49.408;11.116;2022-12-18T11:29:22;-0.20;99.90
11204;DHT22;5659;49.408;11.116;2022-12-18T11:31:48;0.00;99.90
11204;DHT22;5659;49.408;11.116;2022-12-18T11:34:24;0.30;99.90
11204;DHT22;5659;49.408;11.116;2022-12-18T11:36:50;0.40;99.90
11204;DHT22;5659;49.408;11.116;2022-12-18T11:41:52;0.30;99.90
11204;DHT22;5659;49.408;11.116;2022-12-18T11:44:59;0.10;99.90
11204;DHT22;5659;49.408;11.116;2022-12-18T11:47:51;0.30;99.90
11204;DHT22;5659;49.408;11.116;2022-12-18T11:50:21;0.30;99.90
11204;DHT22;5659;49.408;11.116;2022-12-18T11:52:48;0.30;99.90
11204;DHT22;5659;49.408;11.116;2022-12-18T11:55:33;0.50;99.90
11204;DHT22;5659;49.408;11.116;2022-12-18T11:58:12;0.20;99.90
11204;DHT22;5659;49.408;11.116;2022-12-18T12:00:51;-0.10;99.90
11204;DHT22;5659;49.408;11.116;2022-12-18T12:03:23;0.20;99.90
11204;DHT22;5659;49.408;11.116;2022-12-18T12:06:13;-0.10;99.90
11204;DHT22;5659;49.408;11.116;2022-12-18T12:14:44;-0.50;99.90
11204;DHT22;5659;49.408;11.116;2022-12-18T12:18:32;-0.50;99.90
11204;DHT22;5659;49.408;11.116;2022-12-18T12:26:13;-0.50;99.90
11204;DHT22;5659;49.408;11.116;2022-12-18T12:40:06;-0.60;99.90
11204;DHT22;5659;49.408;11.116;2022-12-18T12:42:41;-0.70;99.90
11204;DHT22;5659;49.408;11.116;2022-12-18T12:45:37;-0.70;99.90
11204;DHT22;5659;49.408;11.116;2022-12-18T12:48:06;-0.70;99.90
11204;DHT22;5659;49.408;11.116;2022-12-18T12:50:36;-0.90;99.90
11204;DHT22;5659;49.408;11.116;2022-12-18T12:53:07;-1.00;99.90
11204;DHT22;5659;49.408;11.116;2022-12-18T12:55:34;-1.30;99.90
11204;DHT22;5659;49.408;11.116;2022-12-18T12:58:31;-1.20;99.90
11204;DHT22;5659;49.408;11.116;2022-12-18T13:01:28;-1.10;99.90
11204;DHT22;5659;49.408;11.116;2022-12-18T13:04:10;-1.10;99.90
11204;DHT22;5659;49.408;11.116;2022-12-18T13:06:50;-1.00;99.90
11204;DHT22;5659;49.408;11.116;2022-12-18T13:09:18;-1.20;99.90
11204;DHT22;5659;49.408;11.116;2022-12-18T13:11:45;-1.30;99.90
11204;DHT22;5659;49.408;11.116;2022-12-18T13:14:38;-1.40;99.90
11204;DHT22;5659;49.408;11.116;2022-12-18T13:20:09;-1.40;99.90
11204;DHT22;5659;49.408;11.116;2022-12-18T13:25:02;-1.20;99.90
11204;DHT22;5659;49.408;11.116;2022-12-18T13:40:59;-1.30;99.90
11204;DHT22;5659;49.408;11.116;2022-12-18T13:43:43;-1.60;99.90
11204;DHT22;5659;49.408;11.116;2022-12-18T13:46:29;-1.60;99.90
11204;DHT22;5659;49.408;11.116;2022-12-18T13:49:00;-1.40;99.90
11204;DHT22;5659;49.408;11.116;2022-12-18T13:51:28;-1.60;99.90
11204;DHT22;5659;49.408;11.116;2022-12-18T13:54:24;-1.80;99.90
11204;DHT22;5659;49.408;11.116;2022-12-18T13:56:50;-1.90;99.90
11204;DHT22;5659;49.408;11.116;2022-12-18T13:59:22;-1.90;99.90
11204;DHT22;5659;49.408;11.116;2022-12-18T14:01:59;-2.00;99.90
11204;DHT22;5659;49.408;11.116;2022-12-18T14:04:31;-2.70;99.90
11204;DHT22;5659;49.408;11.116;2022-12-18T14:07:05;-2.10;99.90
11204;DHT22;5659;49.408;11.116;2022-12-18T14:09:37;-2.20;99.90
11204;DHT22;5659;49.408;11.116;2022-12-18T14:12:05;-2.20;99.90
11204;DHT22;5659;49.408;11.116;2022-12-18T14:14:51;-2.20;99.90
11204;DHT22;5659;49.408;11.116;2022-12-18T14:17:18;-2.30;99.90
11204;DHT22;5659;49.408;11.116;2022-12-18T14:19:49;-2.50;99.90
11204;DHT22;5659;49.408;11.116;2022-12-18T14:22:21;-2.50;99.90
11204;DHT22;5659;49.408;11.116;2022-12-18T14:25:26;-2.50;99.90
11204;DHT22;5659;49.408;11.116;2022-12-18T14:30:38;-2.70;99.90
11204;DHT22;5659;49.408;11.116;2022-12-18T14:35:36;-2.80;99.90
11204;DHT22;5659;49.408;11.116;2022-12-18T14:38:24;-2.90;99.90
11204;DHT22;5659;49.408;11.116;2022-12-18T14:41:02;-3.00;99.90
11204;DHT22;5659;49.408;11.116;2022-12-18T14:43:31;-3.00;99.90
11204;DHT22;5659;49.408;11.116;2022-12-18T14:45:57;-3.10;99.90
11204;DHT22;5659;49.408;11.116;2022-12-18T14:48:40;-3.10;99.90
11204;DHT22;5659;49.408;11.116;2022-12-18T14:53:43;-3.30;99.90
11204;DHT22;5659;49.408;11.116;2022-12-18T14:56:21;-3.40;99.90
11204;DHT22;5659;49.408;11.116;2022-12-18T15:04:35;-3.60;99.90
11204;DHT22;5659;49.408;11.116;2022-12-18T15:07:20;-3.70;99.90
11204;DHT22;5659;49.408;11.116;2022-12-18T15:12:34;-4.00;99.90
11204;DHT22;5659;49.408;11.116;2022-12-18T15:15:00;-4.00;99.90
11204;DHT22;5659;49.408;11.116;2022-12-18T15:17:25;-4.10;99.90
11204;DHT22;5659;49.408;11.116;2022-12-18T15:19:57;-4.20;99.90
11204;DHT22;5659;49.408;11.116;2022-12-18T15:22:29;-4.20;99.90
11204;DHT22;5659;49.408;11.116;2022-12-18T15:24:56;-4.20;99.90
11204;DHT22;5659;49.408;11.116;2022-12-18T15:27:36;-4.40;99.90
11204;DHT22;5659;49.408;11.116;2022-12-18T15:32:35;-4.40;99.90
11204;DHT22;5659;49.408;11.116;2022-12-18T15:37:40;-4.50;99.90
11204;DHT22;5659;49.408;11.116;2022-12-18T15:40:07;-4.50;99.90
11204;DHT22;5659;49.408;11.116;2022-12-18T15:42:33;-4.50;99.90
11204;DHT22;5659;49.408;11.116;2022-12-18T15:45:17;-4.50;99.90
11204;DHT22;5659;49.408;11.116;2022-12-18T15:47:43;-4.60;99.90
11204;DHT22;5659;49.408;11.116;2022-12-18T15:50:09;-4.50;99.90
11204;DHT22;5659;49.408;11.116;2022-12-18T15:52:41;-4.70;99.90
11204;DHT22;5659;49.408;11.116;2022-12-18T15:55:13;-4.60;99.90
11204;DHT22;5659;49.408;11.116;2022-12-18T15:58:09;-4.60;99.90
11204;DHT22;5659;49.408;11.116;2022-12-18T16:00:36;-4.80;99.90
11204;DHT22;5659;49.408;11.116;2022-12-18T16:03:03;-4.80;99.90
11204;DHT22;5659;49.408;11.116;2022-12-18T16:05:29;-4.80;99.90
11204;DHT22;5659;49.408;11.116;2022-12-18T16:07:56;-4.70;99.90
11204;DHT22;5659;49.408;11.116;2022-12-18T16:10:22;-4.70;99.90
11204;DHT22;5659;49.408;11.116;2022-12-18T16:12:48;-4.70;99.90
11204;DHT22;5659;49.408;11.116;2022-12-18T16:15:15;-4.80;99.90
11204;DHT22;5659;49.408;11.116;2022-12-18T16:17:45;-4.80;99.90
11204;DHT22;5659;49.408;11.116;2022-12-18T16:20:20;-4.80;99.90
11204;DHT22;5659;49.408;11.116;2022-12-18T16:22:47;-4.90;99.90
11204;DHT22;5659;49.408;11.116;2022-12-18T16:25:25;-4.90;99.90
11204;DHT22;5659;49.408;11.116;2022-12-18T16:27:51;-5.00;99.90
11204;DHT22;5659;49.408;11.116;2022-12-18T16:30:23;-4.90;99.90
11204;DHT22;5659;49.408;11.116;2022-12-18T16:32:49;-5.00;99.90
11204;DHT22;5659;49.408;11.116;2022-12-18T16:35:16;-5.00;99.90
11204;DHT22;5659;49.408;11.116;2022-12-18T16:37:42;-5.00;99.90
11204;DHT22;5659;49.408;11.116;2022-12-18T16:40:10;-5.00;99.90
11204;DHT22;5659;49.408;11.116;2022-12-18T16:42:38;-5.00;99.90
11204;DHT22;5659;49.408;11.116;2022-12-18T16:45:05;-5.10;99.90
11204;DHT22;5659;49.408;11.116;2022-12-18T16:47:31;-5.10;99.90
11204;DHT22;5659;49.408;11.116;2022-12-18T16:49:57;-5.10;99.90
11204;DHT22;5659;49.408;11.116;2022-12-18T16:52:22;-5.20;99.90
11204;DHT22;5659;49.408;11.116;2022-12-18T16:54:48;-5.30;99.90
11204;DHT22;5659;49.408;11.116;2022-12-18T16:57:15;-5.20;99.90
11204;DHT22;5659;49.408;11.116;2022-12-18T16:59:41;-5.30;99.90
11204;DHT22;5659;49.408;11.116;2022-12-18T17:02:15;-5.30;99.90
11204;DHT22;5659;49.408;11.116;2022-12-18T17:04:41;-5.30;99.90
11204;DHT22;5659;49.408;11.116;2022-12-18T17:07:08;-5.30;99.90
11204;DHT22;5659;49.408;11.116;2022-12-18T17:09:33;-5.30;99.90
11204;DHT22;5659;49.408;11.116;2022-12-18T17:11:59;-5.40;99.90
11204;DHT22;5659;49.408;11.116;2022-12-18T17:14:25;-5.40;99.90
11204;DHT22;5659;49.408;11.116;2022-12-18T17:16:52;-5.40;99.90
11204;DHT22;5659;49.408;11.116;2022-12-18T17:19:18;-5.50;99.90
11204;DHT22;5659;49.408;11.116;2022-12-18T17:21:44;-5.50;99.90
11204;DHT22;5659;49.408;11.116;2022-12-18T17:24:12;-5.50;99.90
11204;DHT22;5659;49.408;11.116;2022-12-18T17:26:37;-5.50;99.90
11204;DHT22;5659;49.408;11.116;2022-12-18T17:29:03;-5.50;99.90